sensor_id;sensor_type;location;lat;lon;timestamp;pressure;altitude;pressure_sealevel;temperature;humidity
22047;BME280;11187;49.412;20.956;2023-03-16T00:02:04;94921.47;;;0.85;91.81
22047;BME280;11187;49.412;20.956;2023-03-16T00:04:38;94924.88;;;0.87;92.23
22047;BME280;11187;49.412;20.956;2023-03-16T00:07:34;94926.50;;;0.86;92.34
22047;BME280;11187;49.412;20.956;2023-03-16T00:10:09;94924.88;;;0.87;92.16
22047;BME280;11187;49.412;20.956;2023-03-16T00:12:56;94928.22;;;0.87;92.57
22047;BME280;11187;49.412;20.956;2023-03-16T00:15:29;94928.22;;;0.87;92.03
22047;BME280;11187;49.412;20.956;2023-03-16T00:18:16;94928.22;;;0.87;92.09
22047;BME280;11187;49.412;20.956;2023-03-16T00:20:51;94919.00;;;0.89;91.75
22047;BME280;11187;49.412;20.956;2023-03-16T00:23:45;94924.88;;;0.88;92.52
22047;BME280;11187;49.412;20.956;2023-03-16T00:26:40;94924.88;;;0.88;92.06
22047;BME280;11187;49.412;20.956;2023-03-16T00:29:14;94918.19;;;0.90;92.18
22047;BME280;11187;49.412;20.956;2023-03-16T00:32:04;94924.06;;;0.91;92.50
22047;BME280;11187;49.412;20.956;2023-03-16T00:34:37;94924.88;;;0.87;92.42
22047;BME280;11187;49.412;20.956;2023-03-16T00:37:25;94927.38;;;0.87;91.96
22047;BME280;11187;49.412;20.956;2023-03-16T00:39:59;94928.19;;;0.86;90.95
22047;BME280;11187;49.412;20.956;2023-03-16T00:42:47;94918.88;;;0.81;91.50
22047;BME280;11187;49.412;20.956;2023-03-16T00:45:20;94922.28;;;0.82;91.39
22047;BME280;11187;49.412;20.956;2023-03-16T00:48:07;94925.63;;;0.82;91.68
22047;BME280;11187;49.412;20.956;2023-03-16T00:50:40;94931.50;;;0.83;90.97
22047;BME280;11187;49.412;20.956;2023-03-16T00:53:27;94927.34;;;0.85;91.08
22047;BME280;11187;49.412;20.956;2023-03-16T00:56:02;94924.81;;;0.85;91.14
22047;BME280;11187;49.412;20.956;2023-03-16T00:58:49;94927.38;;;0.87;91.15
22047;BME280;11187;49.412;20.956;2023-03-16T01:01:43;94935.72;;;0.82;91.33
22047;BME280;11187;49.412;20.956;2023-03-16T01:04:18;94934.00;;;0.81;91.55
22047;BME280;11187;49.412;20.956;2023-03-16T01:07:13;94940.72;;;0.81;90.47
22047;BME280;11187;49.412;20.956;2023-03-16T01:09:46;94935.63;;;0.79;90.67
22047;BME280;11187;49.412;20.956;2023-03-16T01:12:33;94936.47;;;0.78;90.88
22047;BME280;11187;49.412;20.956;2023-03-16T01:15:07;94942.34;;;0.77;91.12
22047;BME280;11187;49.412;20.956;2023-03-16T01:17:54;94937.34;;;0.80;91.94
22047;BME280;11187;49.412;20.956;2023-03-16T01:20:27;94943.25;;;0.81;91.85
22047;BME280;11187;49.412;20.956;2023-03-16T01:23:19;94945.75;;;0.81;91.15
22047;BME280;11187;49.412;20.956;2023-03-16T01:25:52;94945.75;;;0.81;90.98
22047;BME280;11187;49.412;20.956;2023-03-16T01:28:46;94948.28;;;0.81;91.44
22047;BME280;11187;49.412;20.956;2023-03-16T01:31:40;94945.75;;;0.81;91.12
22047;BME280;11187;49.412;20.956;2023-03-16T01:34:36;94947.41;;;0.77;91.08
22047;BME280;11187;49.412;20.956;2023-03-16T01:37:09;94948.97;;;0.71;90.88
22047;BME280;11187;49.412;20.956;2023-03-16T01:39:56;94954.00;;;0.72;91.47
22047;BME280;11187;49.412;20.956;2023-03-16T01:42:29;94952.28;;;0.70;91.33
22047;BME280;11187;49.412;20.956;2023-03-16T01:52:18;94959.78;;;0.65;91.58
22047;BME280;11187;49.412;20.956;2023-03-16T01:54:57;94963.09;;;0.62;91.03
22047;BME280;11187;49.412;20.956;2023-03-16T01:57:46;94963.09;;;0.62;91.79
22047;BME280;11187;49.412;20.956;2023-03-16T02:00:27;94973.13;;;0.61;92.21
22047;BME280;11187;49.412;20.956;2023-03-16T02:03:27;94973.97;;;0.60;92.27
22047;BME280;11187;49.412;20.956;2023-03-16T02:08:58;94974.72;;;0.56;92.16
22047;BME280;11187;49.412;20.956;2023-03-16T02:11:32;94981.41;;;0.54;92.10
22047;BME280;11187;49.412;20.956;2023-03-16T02:14:27;94974.72;;;0.56;92.30
22047;BME280;11187;49.412;20.956;2023-03-16T02:17:24;94975.56;;;0.55;92.00
22047;BME280;11187;49.412;20.956;2023-03-16T02:20:35;94987.31;;;0.56;91.28
22047;BME280;11187;49.412;20.956;2023-03-16T02:23:25;94985.56;;;0.52;91.64
22047;BME280;11187;49.412;20.956;2023-03-16T02:26:16;94986.31;;;0.48;91.28
22047;BME280;11187;49.412;20.956;2023-03-16T02:30:14;94983.81;;;0.48;91.57
22047;BME280;11187;49.412;20.956;2023-03-16T02:32:16;94977.88;;;0.44;91.38
22047;BME280;11187;49.412;20.956;2023-03-16T02:35:10;94985.44;;;0.44;91.55
22047;BME280;11187;49.412;20.956;2023-03-16T02:38:04;94982.97;;;0.47;91.98
22047;BME280;11187;49.412;20.956;2023-03-16T02:40:37;94983.72;;;0.43;92.17
22047;BME280;11187;49.412;20.956;2023-03-16T02:43:27;94987.03;;;0.40;92.35
22047;BME280;11187;49.412;20.956;2023-03-16T02:46:06;94988.72;;;0.40;92.40
22047;BME280;11187;49.412;20.956;2023-03-16T02:49:02;94991.09;;;0.32;92.38
22047;BME280;11187;49.412;20.956;2023-03-16T02:51:39;94988.50;;;0.28;92.65
22047;BME280;11187;49.412;20.956;2023-03-16T02:54:33;94988.38;;;0.22;93.39
22047;BME280;11187;49.412;20.956;2023-03-16T02:57:27;94995.97;;;0.23;93.41
22047;BME280;11187;49.412;20.956;2023-03-16T03:00:01;94995.88;;;0.18;93.96
22047;BME280;11187;49.412;20.956;2023-03-16T03:02:56;94999.16;;;0.14;93.93
22047;BME280;11187;49.412;20.956;2023-03-16T03:05:30;94999.94;;;0.12;94.61
22047;BME280;11187;49.412;20.956;2023-03-16T03:08:24;95006.69;;;0.14;94.89
22047;BME280;11187;49.412;20.956;2023-03-16T03:10:58;95019.22;;;0.11;94.50
22047;BME280;11187;49.412;20.956;2023-03-16T03:13:52;95022.59;;;0.12;95.35
22047;BME280;11187;49.412;20.956;2023-03-16T03:16:47;95027.53;;;0.07;95.42
22047;BME280;11187;49.412;20.956;2023-03-16T03:19:20;95022.47;;;0.06;95.51
22047;BME280;11187;49.412;20.956;2023-03-16T03:22:07;95028.28;;;0.03;96.46
22047;BME280;11187;49.412;20.956;2023-03-16T03:24:40;95041.69;;;0.02;96.20
22047;BME280;11187;49.412;20.956;2023-03-16T03:27:27;95039.06;;;-0.03;96.53
22047;BME280;11187;49.412;20.956;2023-03-16T03:30:00;95038.09;;;-0.09;96.67
22047;BME280;11187;49.412;20.956;2023-03-16T03:32:47;95038.97;;;-0.07;97.34
22047;BME280;11187;49.412;20.956;2023-03-16T03:35:21;95047.44;;;-0.04;96.83
22047;BME280;11187;49.412;20.956;2023-03-16T03:38:15;95041.66;;;0.01;97.47
22047;BME280;11187;49.412;20.956;2023-03-16T03:40:50;95045.91;;;0.03;97.21
22047;BME280;11187;49.412;20.956;2023-03-16T03:43:40;95056.03;;;0.05;97.51
22047;BME280;11187;49.412;20.956;2023-03-16T03:46:13;95057.66;;;0.04;97.37
22047;BME280;11187;49.412;20.956;2023-03-16T03:49:00;95058.53;;;0.06;97.08
22047;BME280;11187;49.412;20.956;2023-03-16T03:51:35;95051.03;;;0.08;97.21
22047;BME280;11187;49.412;20.956;2023-03-16T03:54:22;95059.38;;;0.05;97.63
22047;BME280;11187;49.412;20.956;2023-03-16T03:56:56;95071.03;;;0.02;98.20
22047;BME280;11187;49.412;20.956;2023-03-16T03:59:50;95066.75;;;-0.03;98.18
22047;BME280;11187;49.412;20.956;2023-03-16T04:02:44;95074.25;;;-0.06;98.46
22047;BME280;11187;49.412;20.956;2023-03-16T04:05:17;95070.75;;;-0.12;99.40
22047;BME280;11187;49.412;20.956;2023-03-16T04:08:06;95077.50;;;-0.11;98.84
22047;BME280;11187;49.412;20.956;2023-03-16T04:10:39;95080.75;;;-0.15;99.32
22047;BME280;11187;49.412;20.956;2023-03-16T04:13:26;95078.16;;;-0.18;100.00
22047;BME280;11187;49.412;20.956;2023-03-16T04:16:00;95083.97;;;-0.21;99.89
22047;BME280;11187;49.412;20.956;2023-03-16T04:18:47;95084.75;;;-0.24;100.00
22047;BME280;11187;49.412;20.956;2023-03-16T04:21:21;95088.91;;;-0.26;100.00
22047;BME280;11187;49.412;20.956;2023-03-16T04:24:08;95088.97;;;-0.23;99.88
22047;BME280;11187;49.412;20.956;2023-03-16T04:26:43;95089.81;;;-0.22;99.76
22047;BME280;11187;49.412;20.956;2023-03-16T04:29:30;95095.75;;;-0.20;100.00
22047;BME280;11187;49.412;20.956;2023-03-16T04:32:05;95092.34;;;-0.22;99.82
22047;BME280;11187;49.412;20.956;2023-03-16T04:34:52;95095.75;;;-0.18;99.75
22047;BME280;11187;49.412;20.956;2023-03-16T04:37:28;95095.75;;;-0.20;99.97
22047;BME280;11187;49.412;20.956;2023-03-16T04:40:22;95102.41;;;-0.22;99.72
22047;BME280;11187;49.412;20.956;2023-03-16T04:43:16;95103.34;;;-0.17;99.87
22047;BME280;11187;49.412;20.956;2023-03-16T04:45:49;95103.41;;;-0.15;99.61
22047;BME280;11187;49.412;20.956;2023-03-16T04:48:43;95098.41;;;-0.12;99.59
22047;BME280;11187;49.412;20.956;2023-03-16T04:51:37;95111.84;;;-0.12;99.31
22047;BME280;11187;49.412;20.956;2023-03-16T04:54:12;95117.84;;;-0.07;99.53
22047;BME280;11187;49.412;20.956;2023-03-16T04:56:59;95106.91;;;-0.09;98.74
22047;BME280;11187;49.412;20.956;2023-03-16T04:59:32;95118.66;;;-0.08;98.47
22047;BME280;11187;49.412;20.956;2023-03-16T05:02:27;95124.50;;;-0.09;98.63
22047;BME280;11187;49.412;20.956;2023-03-16T05:05:00;95121.03;;;-0.14;98.07
22047;BME280;11187;49.412;20.956;2023-03-16T05:07:54;95121.91;;;-0.13;98.44
22047;BME280;11187;49.412;20.956;2023-03-16T05:10:27;95131.19;;;-0.09;98.47
22047;BME280;11187;49.412;20.956;2023-03-16T05:13:14;95130.19;;;-0.17;97.64
22047;BME280;11187;49.412;20.956;2023-03-16T05:15:47;95136.06;;;-0.17;97.73
22047;BME280;11187;49.412;20.956;2023-03-16T05:18:41;95137.78;;;-0.16;97.95
22047;BME280;11187;49.412;20.956;2023-03-16T05:21:35;95143.66;;;-0.14;97.68
22047;BME280;11187;49.412;20.956;2023-03-16T05:24:29;95148.69;;;-0.14;97.65
22047;BME280;11187;49.412;20.956;2023-03-16T05:27:02;95150.22;;;-0.22;97.49
22047;BME280;11187;49.412;20.956;2023-03-16T05:29:49;95152.69;;;-0.24;97.65
22047;BME280;11187;49.412;20.956;2023-03-16T05:32:22;95151.06;;;-0.22;98.12
22047;BME280;11187;49.412;20.956;2023-03-16T05:35:17;95151.91;;;-0.21;97.83
22047;BME280;11187;49.412;20.956;2023-03-16T05:37:50;95151.13;;;-0.18;97.92
22047;BME280;11187;49.412;20.956;2023-03-16T05:40:37;95152.88;;;-0.14;98.17
22047;BME280;11187;49.412;20.956;2023-03-16T05:43:10;95157.13;;;-0.12;98.07
22047;BME280;11187;49.412;20.956;2023-03-16T05:45:57;95168.94;;;-0.11;97.46
22047;BME280;11187;49.412;20.956;2023-03-16T05:48:30;95176.31;;;-0.17;97.23
22047;BME280;11187;49.412;20.956;2023-03-16T05:51:17;95178.63;;;-0.26;96.93
22047;BME280;11187;49.412;20.956;2023-03-16T05:53:51;95178.56;;;-0.28;97.09
22047;BME280;11187;49.412;20.956;2023-03-16T05:56:39;95180.28;;;-0.27;97.09
22047;BME280;11187;49.412;20.956;2023-03-16T05:59:12;95178.69;;;-0.23;97.10
22047;BME280;11187;49.412;20.956;2023-03-16T06:02:06;95180.41;;;-0.21;96.82
22047;BME280;11187;49.412;20.956;2023-03-16T06:05:00;95186.38;;;-0.17;96.56
22047;BME280;11187;49.412;20.956;2023-03-16T06:07:34;95186.34;;;-0.18;96.32
22047;BME280;11187;49.412;20.956;2023-03-16T06:10:28;95197.22;;;-0.19;96.25
22047;BME280;11187;49.412;20.956;2023-03-16T06:13:22;95199.78;;;-0.18;96.37
22047;BME280;11187;49.412;20.956;2023-03-16T06:15:55;95213.22;;;-0.17;96.34
22047;BME280;11187;49.412;20.956;2023-03-16T06:21:34;95209.03;;;-0.17;96.14
22047;BME280;11187;49.412;20.956;2023-03-16T06:24:21;95214.16;;;-0.12;96.38
22047;BME280;11187;49.412;20.956;2023-03-16T06:26:54;95215.00;;;-0.13;95.78
22047;BME280;11187;49.412;20.956;2023-03-16T06:29:48;95215.84;;;-0.13;95.48
22047;BME280;11187;49.412;20.956;2023-03-16T06:32:42;95226.81;;;-0.11;95.09
22047;BME280;11187;49.412;20.956;2023-03-16T06:35:17;95227.72;;;-0.07;95.40
22047;BME280;11187;49.412;20.956;2023-03-16T06:38:04;95219.28;;;-0.09;94.28
22047;BME280;11187;49.412;20.956;2023-03-16T06:40:37;95226.94;;;-0.05;94.76
22047;BME280;11187;49.412;20.956;2023-03-16T06:43:31;95236.13;;;-0.07;93.86
22047;BME280;11187;49.412;20.956;2023-03-16T06:46:25;95243.91;;;0.03;94.31
22047;BME280;11187;49.412;20.956;2023-03-16T06:48:58;95242.28;;;0.05;93.63
22047;BME280;11187;49.412;20.956;2023-03-16T06:51:45;95247.38;;;0.08;93.67
22047;BME280;11187;49.412;20.956;2023-03-16T06:54:18;95254.09;;;0.09;94.03
22047;BME280;11187;49.412;20.956;2023-03-16T06:57:05;95256.78;;;0.15;93.53
22047;BME280;11187;49.412;20.956;2023-03-16T06:59:38;95253.56;;;0.22;93.97
22047;BME280;11187;49.412;20.956;2023-03-16T07:02:25;95266.16;;;0.20;92.89
22047;BME280;11187;49.412;20.956;2023-03-16T07:04:58;95267.00;;;0.21;92.46
22047;BME280;11187;49.412;20.956;2023-03-16T07:07:52;95271.03;;;0.16;91.75
22047;BME280;11187;49.412;20.956;2023-03-16T07:10:26;95274.44;;;0.16;92.46
22047;BME280;11187;49.412;20.956;2023-03-16T07:13:20;95270.34;;;0.22;92.47
22047;BME280;11187;49.412;20.956;2023-03-16T07:16:14;95267.25;;;0.33;92.04
22047;BME280;11187;49.412;20.956;2023-03-16T07:18:47;95274.94;;;0.38;91.80
22047;BME280;11187;49.412;20.956;2023-03-16T07:21:34;95277.75;;;0.50;91.57
22047;BME280;11187;49.412;20.956;2023-03-16T07:24:11;95272.22;;;0.67;92.45
22047;BME280;11187;49.412;20.956;2023-03-16T07:26:58;95278.25;;;0.75;91.49
22047;BME280;11187;49.412;20.956;2023-03-16T07:29:31;95277.53;;;0.79;89.37
22047;BME280;11187;49.412;20.956;2023-03-16T07:32:18;95283.66;;;0.90;89.63
22047;BME280;11187;49.412;20.956;2023-03-16T07:34:51;95278.09;;;1.05;90.34
22047;BME280;11187;49.412;20.956;2023-03-16T07:37:38;95274.88;;;1.12;89.88
22047;BME280;11187;49.412;20.956;2023-03-16T07:40:12;95279.25;;;1.21;89.46
22047;BME280;11187;49.412;20.956;2023-03-16T07:42:59;95282.63;;;1.21;88.19
22047;BME280;11187;49.412;20.956;2023-03-16T07:45:32;95288.53;;;1.23;87.11
22047;BME280;11187;49.412;20.956;2023-03-16T07:48:19;95295.63;;;1.41;88.29
22047;BME280;11187;49.412;20.956;2023-03-16T07:50:52;95296.69;;;1.53;86.27
22047;BME280;11187;49.412;20.956;2023-03-16T07:53:39;95293.59;;;1.67;85.83
22047;BME280;11187;49.412;20.956;2023-03-16T07:56:13;95295.84;;;1.99;84.43
22047;BME280;11187;49.412;20.956;2023-03-16T07:59:00;95300.50;;;2.26;85.48
22047;BME280;11187;49.412;20.956;2023-03-16T08:01:54;95294.03;;;2.42;85.25
22047;BME280;11187;49.412;20.956;2023-03-16T08:04:48;95298.22;;;2.42;82.79
22047;BME280;11187;49.412;20.956;2023-03-16T08:07:21;95306.13;;;2.62;83.49
22047;BME280;11187;49.412;20.956;2023-03-16T08:10:08;95310.47;;;2.72;80.26
22047;BME280;11187;49.412;20.956;2023-03-16T08:12:43;95306.38;;;2.77;81.77
22047;BME280;11187;49.412;20.956;2023-03-16T08:15:37;95302.31;;;2.88;79.26
22047;BME280;11187;49.412;20.956;2023-03-16T08:18:31;95307.75;;;3.16;80.32
22047;BME280;11187;49.412;20.956;2023-03-16T08:21:04;95303.84;;;3.43;80.00
22047;BME280;11187;49.412;20.956;2023-03-16T08:23:51;95314.84;;;3.45;75.28
22047;BME280;11187;49.412;20.956;2023-03-16T08:26:24;95316.59;;;3.52;76.76
22047;BME280;11187;49.412;20.956;2023-03-16T08:29:18;95311.66;;;3.60;75.05
22047;BME280;11187;49.412;20.956;2023-03-16T08:32:12;95320.88;;;3.54;73.42
22047;BME280;11187;49.412;20.956;2023-03-16T08:34:45;95318.19;;;3.41;76.11
22047;BME280;11187;49.412;20.956;2023-03-16T08:37:42;95323.09;;;3.30;76.88
22047;BME280;11187;49.412;20.956;2023-03-16T08:40:15;95319.63;;;3.23;76.97
22047;BME280;11187;49.412;20.956;2023-03-16T08:43:10;95331.84;;;2.91;75.30
22047;BME280;11187;49.412;20.956;2023-03-16T08:45:44;95343.31;;;2.69;76.01
22047;BME280;11187;49.412;20.956;2023-03-16T08:48:31;95339.00;;;2.63;77.64
22047;BME280;11187;49.412;20.956;2023-03-16T08:51:09;95337.44;;;2.71;76.97
22047;BME280;11187;49.412;20.956;2023-03-16T08:54:03;95336.09;;;2.93;77.67
22047;BME280;11187;49.412;20.956;2023-03-16T08:56:57;95332.13;;;3.12;77.03
22047;BME280;11187;49.412;20.956;2023-03-16T08:59:30;95331.88;;;3.57;78.01
22047;BME280;11187;49.412;20.956;2023-03-16T09:02:17;95326.50;;;4.08;75.19
22047;BME280;11187;49.412;20.956;2023-03-16T09:04:50;95333.28;;;4.09;71.42
22047;BME280;11187;49.412;20.956;2023-03-16T09:07:44;95336.78;;;3.47;69.09
22047;BME280;11187;49.412;20.956;2023-03-16T09:10:39;95328.34;;;3.44;72.05
22047;BME280;11187;49.412;20.956;2023-03-16T09:13:34;95330.28;;;3.66;72.51
22047;BME280;11187;49.412;20.956;2023-03-16T09:16:08;95341.34;;;3.73;73.18
22047;BME280;11187;49.412;20.956;2023-03-16T09:19:06;95340.72;;;3.94;71.57
22047;BME280;11187;49.412;20.956;2023-03-16T09:21:39;95337.44;;;4.03;71.89
22047;BME280;11187;49.412;20.956;2023-03-16T09:24:33;95337.56;;;4.13;71.20
22047;BME280;11187;49.412;20.956;2023-03-16T09:27:06;95357.72;;;4.03;70.27
22047;BME280;11187;49.412;20.956;2023-03-16T09:30:03;95358.16;;;3.69;69.42
22047;BME280;11187;49.412;20.956;2023-03-16T09:32:36;95355.38;;;3.46;69.45
22047;BME280;11187;49.412;20.956;2023-03-16T09:35:24;95353.16;;;3.74;71.88
22047;BME280;11187;49.412;20.956;2023-03-16T09:38:01;95359.38;;;4.01;71.29
22047;BME280;11187;49.412;20.956;2023-03-16T09:47:02;95368.25;;;4.41;65.89
22047;BME280;11187;49.412;20.956;2023-03-16T09:49:59;95357.53;;;4.73;69.22
22047;BME280;11187;49.412;20.956;2023-03-16T09:52:48;95364.16;;;4.57;66.03
22047;BME280;11187;49.412;20.956;2023-03-16T09:55:51;95364.88;;;4.41;68.15
22047;BME280;11187;49.412;20.956;2023-03-16T09:58:46;95380.72;;;4.21;66.64
22047;BME280;11187;49.412;20.956;2023-03-16T10:07:08;95374.31;;;3.79;68.18
22047;BME280;11187;49.412;20.956;2023-03-16T10:13:01;95370.31;;;3.96;65.78
22047;BME280;11187;49.412;20.956;2023-03-16T10:15:58;95374.41;;;3.88;68.51
22047;BME280;11187;49.412;20.956;2023-03-16T10:18:43;95382.88;;;3.90;68.74
22047;BME280;11187;49.412;20.956;2023-03-16T10:21:40;95379.44;;;3.84;67.92
22047;BME280;11187;49.412;20.956;2023-03-16T10:27:38;95399.59;;;3.74;66.41
22047;BME280;11187;49.412;20.956;2023-03-16T10:30:31;95387.66;;;3.64;68.03
22047;BME280;11187;49.412;20.956;2023-03-16T10:33:30;95390.34;;;3.75;69.15
22047;BME280;11187;49.412;20.956;2023-03-16T10:36:33;95390.41;;;3.83;67.60
22047;BME280;11187;49.412;20.956;2023-03-16T10:39:35;95391.22;;;3.80;68.95
22047;BME280;11187;49.412;20.956;2023-03-16T10:42:18;95387.78;;;3.76;68.67
22047;BME280;11187;49.412;20.956;2023-03-16T10:45:34;95385.03;;;3.57;67.95
22047;BME280;11187;49.412;20.956;2023-03-16T10:48:30;95390.06;;;3.55;68.04
22047;BME280;11187;49.412;20.956;2023-03-16T10:51:35;95397.75;;;3.61;67.68
22047;BME280;11187;49.412;20.956;2023-03-16T10:54:30;95391.91;;;3.67;67.55
22047;BME280;11187;49.412;20.956;2023-03-16T10:57:20;95382.84;;;3.86;68.34
22047;BME280;11187;49.412;20.956;2023-03-16T11:00:04;95383.81;;;3.97;66.41
22047;BME280;11187;49.412;20.956;2023-03-16T11:02:58;95391.44;;;3.98;66.79
22047;BME280;11187;49.412;20.956;2023-03-16T11:05:33;95394.72;;;3.90;67.04
22047;BME280;11187;49.412;20.956;2023-03-16T11:08:24;95386.94;;;3.76;65.17
22047;BME280;11187;49.412;20.956;2023-03-16T11:11:09;95394.56;;;3.79;67.69
22047;BME280;11187;49.412;20.956;2023-03-16T11:13:58;95391.19;;;3.77;67.83
22047;BME280;11187;49.412;20.956;2023-03-16T11:16:52;95387.13;;;3.90;68.83
22047;BME280;11187;49.412;20.956;2023-03-16T11:19:56;95389.69;;;3.91;66.51
22047;BME280;11187;49.412;20.956;2023-03-16T11:22:32;95392.34;;;4.04;67.52
22047;BME280;11187;49.412;20.956;2023-03-16T11:33:26;95391.66;;;4.18;62.77
22047;BME280;11187;49.412;20.956;2023-03-16T11:40:19;95395.63;;;3.96;64.77
22047;BME280;11187;49.412;20.956;2023-03-16T11:42:50;95386.28;;;3.92;65.79
22047;BME280;11187;49.412;20.956;2023-03-16T11:46:07;95381.41;;;4.08;64.31
22047;BME280;11187;49.412;20.956;2023-03-16T11:55:41;95386.59;;;4.18;63.99
22047;BME280;11187;49.412;20.956;2023-03-16T12:02:00;95389.91;;;4.13;63.87
22047;BME280;11187;49.412;20.956;2023-03-16T12:12:02;95383.28;;;4.23;60.54
22047;BME280;11187;49.412;20.956;2023-03-16T12:17:47;95382.50;;;4.33;59.76
22047;BME280;11187;49.412;20.956;2023-03-16T12:20:47;95378.25;;;4.30;59.29
22047;BME280;11187;49.412;20.956;2023-03-16T12:23:51;95394.16;;;4.17;58.50
22047;BME280;11187;49.412;20.956;2023-03-16T12:26:46;95390.78;;;4.13;60.64
22047;BME280;11187;49.412;20.956;2023-03-16T12:29:42;95392.50;;;4.19;61.52
22047;BME280;11187;49.412;20.956;2023-03-16T12:38:42;95384.84;;;4.14;63.43
22047;BME280;11187;49.412;20.956;2023-03-16T12:44:37;95385.78;;;4.24;60.50
22047;BME280;11187;49.412;20.956;2023-03-16T12:50:28;95394.44;;;4.45;60.01
22047;BME280;11187;49.412;20.956;2023-03-16T12:53:03;95395.31;;;4.45;60.97
22047;BME280;11187;49.412;20.956;2023-03-16T12:55:50;95397.03;;;4.48;59.46
22047;BME280;11187;49.412;20.956;2023-03-16T12:58:24;95395.25;;;4.39;60.45
22047;BME280;11187;49.412;20.956;2023-03-16T13:01:29;95399.34;;;4.26;59.47
22047;BME280;11187;49.412;20.956;2023-03-16T13:07:24;95406.63;;;3.98;60.02
22047;BME280;11187;49.412;20.956;2023-03-16T13:10:18;95398.09;;;3.89;60.40
22047;BME280;11187;49.412;20.956;2023-03-16T13:12:53;95403.97;;;3.86;60.09
22047;BME280;11187;49.412;20.956;2023-03-16T13:15:44;95392.22;;;3.91;61.00
22047;BME280;11187;49.412;20.956;2023-03-16T13:18:23;95399.03;;;3.98;61.78
22047;BME280;11187;49.412;20.956;2023-03-16T13:21:37;95400.78;;;4.03;60.67
22047;BME280;11187;49.412;20.956;2023-03-16T13:27:11;95405.72;;;3.92;59.96
22047;BME280;11187;49.412;20.956;2023-03-16T13:29:52;95407.28;;;3.82;59.58
22047;BME280;11187;49.412;20.956;2023-03-16T13:32:39;95408.97;;;3.80;59.35
22047;BME280;11187;49.412;20.956;2023-03-16T13:35:14;95413.19;;;3.81;60.40
22047;BME280;11187;49.412;20.956;2023-03-16T13:38:17;95414.09;;;3.86;60.96
22047;BME280;11187;49.412;20.956;2023-03-16T13:41:15;95405.69;;;3.90;60.96
22047;BME280;11187;49.412;20.956;2023-03-16T13:43:48;95406.53;;;3.89;60.20
22047;BME280;11187;49.412;20.956;2023-03-16T13:46:42;95401.56;;;3.95;59.57
22047;BME280;11187;49.412;20.956;2023-03-16T13:49:17;95416.81;;;4.00;60.14
22047;BME280;11187;49.412;20.956;2023-03-16T13:55:01;95400.69;;;3.95;60.05
22047;BME280;11187;49.412;20.956;2023-03-16T13:57:55;95405.72;;;3.92;60.49
22047;BME280;11187;49.412;20.956;2023-03-16T14:00:54;95413.28;;;3.90;61.06
22047;BME280;11187;49.412;20.956;2023-03-16T14:03:49;95408.19;;;3.87;59.44
22047;BME280;11187;49.412;20.956;2023-03-16T14:06:55;95407.28;;;3.84;60.21
22047;BME280;11187;49.412;20.956;2023-03-16T14:09:49;95401.41;;;3.85;60.60
22047;BME280;11187;49.412;20.956;2023-03-16T14:12:24;95407.28;;;3.84;59.13
22047;BME280;11187;49.412;20.956;2023-03-16T14:15:12;95410.72;;;3.87;57.94
22047;BME280;11187;49.412;20.956;2023-03-16T14:17:45;95417.50;;;3.90;57.33
22047;BME280;11187;49.412;20.956;2023-03-16T14:20:32;95419.28;;;3.97;57.42
22047;BME280;11187;49.412;20.956;2023-03-16T14:23:18;95419.19;;;3.89;57.98
22047;BME280;11187;49.412;20.956;2023-03-16T14:26:15;95417.41;;;3.81;59.01
22047;BME280;11187;49.412;20.956;2023-03-16T14:29:01;95423.28;;;3.78;59.69
22047;BME280;11187;49.412;20.956;2023-03-16T14:31:48;95426.66;;;3.77;60.61
22047;BME280;11187;49.412;20.956;2023-03-16T14:34:33;95424.91;;;3.74;60.93
22047;BME280;11187;49.412;20.956;2023-03-16T14:37:20;95425.66;;;3.67;61.06
22047;BME280;11187;49.412;20.956;2023-03-16T14:40:00;95426.44;;;3.62;61.49
22047;BME280;11187;49.412;20.956;2023-03-16T14:42:47;95423.78;;;3.52;62.31
22047;BME280;11187;49.412;20.956;2023-03-16T14:45:20;95422.97;;;3.55;62.23
22047;BME280;11187;49.412;20.956;2023-03-16T14:48:14;95422.19;;;3.61;61.99
22047;BME280;11187;49.412;20.956;2023-03-16T14:50:53;95429.84;;;3.64;61.93
22047;BME280;11187;49.412;20.956;2023-03-16T14:53:41;95423.97;;;3.66;62.12
22047;BME280;11187;49.412;20.956;2023-03-16T14:56:14;95428.25;;;3.70;63.69
22047;BME280;11187;49.412;20.956;2023-03-16T14:59:08;95429.91;;;3.70;62.78
22047;BME280;11187;49.412;20.956;2023-03-16T15:01:41;95433.28;;;3.69;61.43
22047;BME280;11187;49.412;20.956;2023-03-16T15:04:35;95433.25;;;3.66;61.41
22047;BME280;11187;49.412;20.956;2023-03-16T15:07:32;95434.06;;;3.65;60.42
22047;BME280;11187;49.412;20.956;2023-03-16T15:10:23;95439.09;;;3.63;60.90
22047;BME280;11187;49.412;20.956;2023-03-16T15:13:20;95444.97;;;3.61;62.29
22047;BME280;11187;49.412;20.956;2023-03-16T15:16:17;95437.38;;;3.61;63.25
22047;BME280;11187;49.412;20.956;2023-03-16T15:19:05;95447.44;;;3.54;61.28
22047;BME280;11187;49.412;20.956;2023-03-16T15:21:38;95455.81;;;3.52;61.77
22047;BME280;11187;49.412;20.956;2023-03-16T15:24:25;95460.91;;;3.53;61.00
22047;BME280;11187;49.412;20.956;2023-03-16T15:27:00;95461.69;;;3.49;61.84
22047;BME280;11187;49.412;20.956;2023-03-16T15:29:54;95464.97;;;3.42;61.93
22047;BME280;11187;49.412;20.956;2023-03-16T15:32:48;95466.69;;;3.45;63.31
22047;BME280;11187;49.412;20.956;2023-03-16T15:35:21;95468.38;;;3.44;63.27
22047;BME280;11187;49.412;20.956;2023-03-16T15:38:15;95462.56;;;3.50;63.17
22047;BME280;11187;49.412;20.956;2023-03-16T15:40:51;95471.03;;;3.53;64.11
22047;BME280;11187;49.412;20.956;2023-03-16T15:43:38;95472.84;;;3.59;63.49
22047;BME280;11187;49.412;20.956;2023-03-16T15:46:12;95473.75;;;3.64;62.56
22047;BME280;11187;49.412;20.956;2023-03-16T15:49:06;95477.91;;;3.61;62.46
22047;BME280;11187;49.412;20.956;2023-03-16T15:52:00;95471.31;;;3.72;62.96
22047;BME280;11187;49.412;20.956;2023-03-16T15:54:34;95479.19;;;3.95;62.44
22047;BME280;11187;49.412;20.956;2023-03-16T15:57:21;95485.31;;;4.09;62.18
22047;BME280;11187;49.412;20.956;2023-03-16T15:59:54;95483.50;;;4.01;63.67